sensor_id;sensor_type;location;lat;lon;timestamp;P1;durP1;ratioP1;P2;durP2;ratioP2
74415;SDS011;62850;42.428;25.618;2023-03-31T00:00:28;8.02;;;2.22;;
74415;SDS011;62850;42.428;25.618;2023-03-31T00:02:53;5.68;;;2.30;;
74415;SDS011;62850;42.428;25.618;2023-03-31T00:05:22;7.20;;;2.42;;
74415;SDS011;62850;42.428;25.618;2023-03-31T00:07:52;6.47;;;2.50;;
74415;SDS011;62850;42.428;25.618;2023-03-31T00:10:19;5.30;;;2.40;;
74415;SDS011;62850;42.428;25.618;2023-03-31T00:12:44;4.57;;;2.15;;
74415;SDS011;62850;42.428;25.618;2023-03-31T00:15:10;5.22;;;2.03;;
74415;SDS011;62850;42.428;25.618;2023-03-31T00:17:36;7.88;;;2.83;;
74415;SDS011;62850;42.428;25.618;2023-03-31T00:20:01;6.80;;;3.25;;
74415;SDS011;62850;42.428;25.618;2023-03-31T00:22:29;7.95;;;2.95;;
74415;SDS011;62850;42.428;25.618;2023-03-31T00:24:55;8.80;;;3.38;;
74415;SDS011;62850;42.428;25.618;2023-03-31T00:27:21;5.65;;;2.67;;
74415;SDS011;62850;42.428;25.618;2023-03-31T00:29:46;6.78;;;2.95;;
74415;SDS011;62850;42.428;25.618;2023-03-31T00:32:14;5.97;;;2.50;;
74415;SDS011;62850;42.428;25.618;2023-03-31T00:34:40;4.95;;;2.28;;
74415;SDS011;62850;42.428;25.618;2023-03-31T00:37:06;6.65;;;2.42;;
74415;SDS011;62850;42.428;25.618;2023-03-31T00:39:33;6.22;;;2.83;;
74415;SDS011;62850;42.428;25.618;2023-03-31T00:42:03;8.45;;;2.60;;
74415;SDS011;62850;42.428;25.618;2023-03-31T00:44:29;7.85;;;2.40;;
74415;SDS011;62850;42.428;25.618;2023-03-31T00:47:01;10.27;;;3.13;;
74415;SDS011;62850;42.428;25.618;2023-03-31T00:51:59;6.13;;;2.80;;
74415;SDS011;62850;42.428;25.618;2023-03-31T00:54:30;5.78;;;2.30;;
74415;SDS011;62850;42.428;25.618;2023-03-31T00:56:57;5.63;;;2.38;;
74415;SDS011;62850;42.428;25.618;2023-03-31T00:59:27;5.20;;;2.55;;
74415;SDS011;62850;42.428;25.618;2023-03-31T01:01:56;6.13;;;2.38;;
74415;SDS011;62850;42.428;25.618;2023-03-31T01:04:26;6.40;;;3.80;;
74415;SDS011;62850;42.428;25.618;2023-03-31T01:07:56;8.43;;;3.53;;
74415;SDS011;62850;42.428;25.618;2023-03-31T01:10:00;5.38;;;2.58;;
74415;SDS011;62850;42.428;25.618;2023-03-31T01:12:28;5.15;;;2.42;;
74415;SDS011;62850;42.428;25.618;2023-03-31T01:14:55;6.13;;;2.10;;
74415;SDS011;62850;42.428;25.618;2023-03-31T01:17:21;6.65;;;1.95;;
74415;SDS011;62850;42.428;25.618;2023-03-31T01:47:17;6.10;;;2.17;;
74415;SDS011;62850;42.428;25.618;2023-03-31T01:52:31;5.32;;;2.22;;
74415;SDS011;62850;42.428;25.618;2023-03-31T01:55:17;4.82;;;2.55;;
74415;SDS011;62850;42.428;25.618;2023-03-31T01:57:52;5.10;;;2.10;;
74415;SDS011;62850;42.428;25.618;2023-03-31T02:00:24;4.40;;;2.25;;
74415;SDS011;62850;42.428;25.618;2023-03-31T02:03:04;4.45;;;1.80;;
74415;SDS011;62850;42.428;25.618;2023-03-31T02:05:46;4.18;;;2.13;;
74415;SDS011;62850;42.428;25.618;2023-03-31T02:08:30;4.50;;;1.70;;
74415;SDS011;62850;42.428;25.618;2023-03-31T02:11:02;5.30;;;2.40;;
74415;SDS011;62850;42.428;25.618;2023-03-31T02:13:27;4.93;;;2.10;;
74415;SDS011;62850;42.428;25.618;2023-03-31T02:15:55;5.25;;;2.00;;
74415;SDS011;62850;42.428;25.618;2023-03-31T02:18:26;4.90;;;2.30;;
74415;SDS011;62850;42.428;25.618;2023-03-31T02:20:54;4.65;;;2.05;;
74415;SDS011;62850;42.428;25.618;2023-03-31T02:23:23;3.90;;;2.15;;
74415;SDS011;62850;42.428;25.618;2023-03-31T02:28:24;6.78;;;2.60;;
74415;SDS011;62850;42.428;25.618;2023-03-31T02:31:04;4.68;;;2.08;;
74415;SDS011;62850;42.428;25.618;2023-03-31T02:33:43;6.95;;;2.70;;
74415;SDS011;62850;42.428;25.618;2023-03-31T02:36:08;9.27;;;2.40;;
74415;SDS011;62850;42.428;25.618;2023-03-31T02:38:38;8.93;;;2.17;;
74415;SDS011;62850;42.428;25.618;2023-03-31T02:41:09;7.72;;;2.85;;
74415;SDS011;62850;42.428;25.618;2023-03-31T02:43:34;6.75;;;2.55;;
74415;SDS011;62850;42.428;25.618;2023-03-31T02:46:00;13.60;;;3.25;;
74415;SDS011;62850;42.428;25.618;2023-03-31T02:48:30;8.63;;;2.63;;
74415;SDS011;62850;42.428;25.618;2023-03-31T02:54:09;5.43;;;2.28;;
74415;SDS011;62850;42.428;25.618;2023-03-31T03:02:52;8.93;;;4.63;;
74415;SDS011;62850;42.428;25.618;2023-03-31T03:16:59;9.88;;;4.30;;
74415;SDS011;62850;42.428;25.618;2023-03-31T03:19:30;10.55;;;3.90;;
74415;SDS011;62850;42.428;25.618;2023-03-31T03:21:55;14.13;;;4.03;;
74415;SDS011;62850;42.428;25.618;2023-03-31T03:24:22;7.78;;;3.60;;
74415;SDS011;62850;42.428;25.618;2023-03-31T03:26:47;14.80;;;4.03;;
74415;SDS011;62850;42.428;25.618;2023-03-31T03:29:13;7.90;;;3.60;;
74415;SDS011;62850;42.428;25.618;2023-03-31T03:31:38;9.30;;;4.00;;
74415;SDS011;62850;42.428;25.618;2023-03-31T03:34:07;9.45;;;4.07;;
74415;SDS011;62850;42.428;25.618;2023-03-31T03:36:34;8.43;;;4.90;;
74415;SDS011;62850;42.428;25.618;2023-03-31T03:39:01;9.77;;;4.32;;
74415;SDS011;62850;42.428;25.618;2023-03-31T03:41:28;8.88;;;4.40;;
74415;SDS011;62850;42.428;25.618;2023-03-31T03:43:53;7.88;;;3.95;;
74415;SDS011;62850;42.428;25.618;2023-03-31T03:46:19;8.75;;;4.72;;
74415;SDS011;62850;42.428;25.618;2023-03-31T03:48:44;13.60;;;5.80;;
74415;SDS011;62850;42.428;25.618;2023-03-31T03:51:10;12.35;;;5.30;;
74415;SDS011;62850;42.428;25.618;2023-03-31T03:53:35;13.75;;;5.30;;
74415;SDS011;62850;42.428;25.618;2023-03-31T03:56:01;16.55;;;5.28;;
74415;SDS011;62850;42.428;25.618;2023-03-31T03:58:26;10.75;;;4.57;;
74415;SDS011;62850;42.428;25.618;2023-03-31T04:00:52;14.95;;;4.90;;
74415;SDS011;62850;42.428;25.618;2023-03-31T04:03:17;8.95;;;4.05;;
74415;SDS011;62850;42.428;25.618;2023-03-31T04:05:43;9.32;;;4.85;;
74415;SDS011;62850;42.428;25.618;2023-03-31T04:08:08;14.55;;;6.10;;
74415;SDS011;62850;42.428;25.618;2023-03-31T04:10:34;17.20;;;6.40;;
74415;SDS011;62850;42.428;25.618;2023-03-31T04:13:00;17.08;;;6.35;;
74415;SDS011;62850;42.428;25.618;2023-03-31T04:15:26;14.13;;;6.90;;
74415;SDS011;62850;42.428;25.618;2023-03-31T04:17:51;19.88;;;8.93;;
74415;SDS011;62850;42.428;25.618;2023-03-31T04:20:19;19.75;;;9.43;;
74415;SDS011;62850;42.428;25.618;2023-03-31T04:22:45;14.93;;;7.03;;
74415;SDS011;62850;42.428;25.618;2023-03-31T04:25:15;19.13;;;7.43;;
74415;SDS011;62850;42.428;25.618;2023-03-31T04:27:41;23.75;;;8.40;;
74415;SDS011;62850;42.428;25.618;2023-03-31T04:30:15;17.73;;;8.32;;
74415;SDS011;62850;42.428;25.618;2023-03-31T04:32:51;17.83;;;7.07;;
74415;SDS011;62850;42.428;25.618;2023-03-31T04:35:23;15.65;;;6.32;;
74415;SDS011;62850;42.428;25.618;2023-03-31T04:37:50;22.42;;;6.53;;
74415;SDS011;62850;42.428;25.618;2023-03-31T04:40:23;12.65;;;6.13;;
74415;SDS011;62850;42.428;25.618;2023-03-31T04:42:49;12.95;;;6.10;;
74415;SDS011;62850;42.428;25.618;2023-03-31T04:45:15;20.35;;;6.40;;
74415;SDS011;62850;42.428;25.618;2023-03-31T04:47:41;20.42;;;6.25;;
74415;SDS011;62850;42.428;25.618;2023-03-31T04:50:07;20.38;;;6.60;;
74415;SDS011;62850;42.428;25.618;2023-03-31T04:52:34;21.15;;;5.78;;
74415;SDS011;62850;42.428;25.618;2023-03-31T04:55:00;14.32;;;6.50;;
74415;SDS011;62850;42.428;25.618;2023-03-31T04:57:26;18.20;;;5.60;;
74415;SDS011;62850;42.428;25.618;2023-03-31T04:59:51;16.02;;;6.25;;
74415;SDS011;62850;42.428;25.618;2023-03-31T05:02:17;16.08;;;7.13;;
74415;SDS011;62850;42.428;25.618;2023-03-31T05:04:47;20.15;;;7.07;;
74415;SDS011;62850;42.428;25.618;2023-03-31T05:07:14;21.95;;;7.18;;
74415;SDS011;62850;42.428;25.618;2023-03-31T05:09:41;29.90;;;8.40;;
74415;SDS011;62850;42.428;25.618;2023-03-31T05:12:06;17.60;;;6.55;;
74415;SDS011;62850;42.428;25.618;2023-03-31T05:14:32;14.88;;;6.55;;
74415;SDS011;62850;42.428;25.618;2023-03-31T05:16:57;17.17;;;6.93;;
74415;SDS011;62850;42.428;25.618;2023-03-31T05:19:23;17.58;;;6.97;;
74415;SDS011;62850;42.428;25.618;2023-03-31T05:21:48;19.25;;;7.05;;
74415;SDS011;62850;42.428;25.618;2023-03-31T05:24:17;18.40;;;6.35;;
74415;SDS011;62850;42.428;25.618;2023-03-31T05:26:42;23.45;;;7.55;;
74415;SDS011;62850;42.428;25.618;2023-03-31T05:29:16;15.27;;;5.80;;
74415;SDS011;62850;42.428;25.618;2023-03-31T05:31:45;19.55;;;6.32;;
74415;SDS011;62850;42.428;25.618;2023-03-31T05:34:11;23.17;;;6.60;;
74415;SDS011;62850;42.428;25.618;2023-03-31T05:36:36;17.55;;;5.95;;
74415;SDS011;62850;42.428;25.618;2023-03-31T05:39:03;17.52;;;5.85;;
74415;SDS011;62850;42.428;25.618;2023-03-31T05:41:29;19.23;;;6.80;;
74415;SDS011;62850;42.428;25.618;2023-03-31T05:43:54;13.30;;;5.80;;
74415;SDS011;62850;42.428;25.618;2023-03-31T05:46:20;13.82;;;5.50;;
74415;SDS011;62850;42.428;25.618;2023-03-31T05:48:46;10.82;;;4.45;;
74415;SDS011;62850;42.428;25.618;2023-03-31T05:51:11;11.82;;;4.95;;
74415;SDS011;62850;42.428;25.618;2023-03-31T05:53:37;19.77;;;5.97;;
74415;SDS011;62850;42.428;25.618;2023-03-31T05:56:03;20.17;;;7.15;;
74415;SDS011;62850;42.428;25.618;2023-03-31T05:58:32;20.00;;;8.52;;
74415;SDS011;62850;42.428;25.618;2023-03-31T06:01:01;23.55;;;7.65;;
74415;SDS011;62850;42.428;25.618;2023-03-31T06:03:29;14.85;;;7.10;;
74415;SDS011;62850;42.428;25.618;2023-03-31T06:05:55;16.33;;;6.75;;
74415;SDS011;62850;42.428;25.618;2023-03-31T06:08:21;15.15;;;7.63;;
74415;SDS011;62850;42.428;25.618;2023-03-31T06:10:46;15.30;;;7.30;;
74415;SDS011;62850;42.428;25.618;2023-03-31T06:13:12;22.52;;;7.60;;
74415;SDS011;62850;42.428;25.618;2023-03-31T06:15:37;35.15;;;13.18;;
74415;SDS011;62850;42.428;25.618;2023-03-31T06:18:03;28.38;;;10.93;;
74415;SDS011;62850;42.428;25.618;2023-03-31T06:20:31;30.83;;;10.35;;
74415;SDS011;62850;42.428;25.618;2023-03-31T06:22:56;30.90;;;10.13;;
74415;SDS011;62850;42.428;25.618;2023-03-31T06:25:22;32.65;;;9.90;;
74415;SDS011;62850;42.428;25.618;2023-03-31T06:27:47;27.17;;;9.90;;
74415;SDS011;62850;42.428;25.618;2023-03-31T06:30:13;37.50;;;9.95;;
74415;SDS011;62850;42.428;25.618;2023-03-31T06:32:38;25.20;;;8.52;;
74415;SDS011;62850;42.428;25.618;2023-03-31T06:35:04;24.80;;;8.90;;
74415;SDS011;62850;42.428;25.618;2023-03-31T06:37:30;23.60;;;8.40;;
74415;SDS011;62850;42.428;25.618;2023-03-31T06:39:55;37.97;;;10.02;;
74415;SDS011;62850;42.428;25.618;2023-03-31T06:42:21;67.28;;;12.73;;
74415;SDS011;62850;42.428;25.618;2023-03-31T06:44:46;27.60;;;8.60;;
74415;SDS011;62850;42.428;25.618;2023-03-31T06:47:12;27.50;;;8.85;;
74415;SDS011;62850;42.428;25.618;2023-03-31T06:49:37;33.22;;;9.35;;
74415;SDS011;62850;42.428;25.618;2023-03-31T06:52:03;19.42;;;8.93;;
74415;SDS011;62850;42.428;25.618;2023-03-31T06:54:29;21.92;;;8.27;;
74415;SDS011;62850;42.428;25.618;2023-03-31T06:56:54;24.45;;;8.98;;
74415;SDS011;62850;42.428;25.618;2023-03-31T06:59:20;26.20;;;9.85;;
74415;SDS011;62850;42.428;25.618;2023-03-31T07:01:45;22.27;;;8.75;;
74415;SDS011;62850;42.428;25.618;2023-03-31T07:04:12;25.50;;;10.48;;
74415;SDS011;62850;42.428;25.618;2023-03-31T07:06:38;22.02;;;8.27;;
74415;SDS011;62850;42.428;25.618;2023-03-31T07:09:03;18.05;;;7.75;;
74415;SDS011;62850;42.428;25.618;2023-03-31T07:11:29;37.08;;;12.88;;
74415;SDS011;62850;42.428;25.618;2023-03-31T07:13:55;70.32;;;25.05;;
74415;SDS011;62850;42.428;25.618;2023-03-31T07:16:20;78.45;;;25.77;;
74415;SDS011;62850;42.428;25.618;2023-03-31T07:18:46;65.90;;;20.33;;
74415;SDS011;62850;42.428;25.618;2023-03-31T07:21:11;40.33;;;15.30;;
74415;SDS011;62850;42.428;25.618;2023-03-31T07:23:37;32.47;;;10.85;;
74415;SDS011;62850;42.428;25.618;2023-03-31T07:26:02;33.40;;;10.02;;
74415;SDS011;62850;42.428;25.618;2023-03-31T07:28:28;37.60;;;13.60;;
74415;SDS011;62850;42.428;25.618;2023-03-31T07:30:54;24.60;;;9.73;;
74415;SDS011;62850;42.428;25.618;2023-03-31T07:33:20;17.75;;;8.40;;
74415;SDS011;62850;42.428;25.618;2023-03-31T07:35:45;18.85;;;7.88;;
74415;SDS011;62850;42.428;25.618;2023-03-31T07:38:11;23.48;;;7.97;;
74415;SDS011;62850;42.428;25.618;2023-03-31T07:40:37;20.17;;;7.63;;
74415;SDS011;62850;42.428;25.618;2023-03-31T07:43:04;14.50;;;7.60;;
74415;SDS011;62850;42.428;25.618;2023-03-31T07:45:30;22.60;;;8.30;;
74415;SDS011;62850;42.428;25.618;2023-03-31T07:47:56;20.17;;;7.40;;
74415;SDS011;62850;42.428;25.618;2023-03-31T07:50:22;18.55;;;8.30;;
74415;SDS011;62850;42.428;25.618;2023-03-31T07:52:47;21.13;;;8.98;;
74415;SDS011;62850;42.428;25.618;2023-03-31T07:55:14;23.95;;;8.55;;
74415;SDS011;62850;42.428;25.618;2023-03-31T07:57:40;26.38;;;9.10;;
74415;SDS011;62850;42.428;25.618;2023-03-31T08:00:08;21.83;;;7.90;;
74415;SDS011;62850;42.428;25.618;2023-03-31T08:02:36;19.17;;;8.38;;
74415;SDS011;62850;42.428;25.618;2023-03-31T08:05:02;22.45;;;9.18;;
74415;SDS011;62850;42.428;25.618;2023-03-31T08:07:29;20.20;;;9.23;;
74415;SDS011;62850;42.428;25.618;2023-03-31T08:09:58;28.80;;;10.13;;
74415;SDS011;62850;42.428;25.618;2023-03-31T08:12:23;30.55;;;9.77;;
74415;SDS011;62850;42.428;25.618;2023-03-31T08:14:49;30.00;;;8.73;;
74415;SDS011;62850;42.428;25.618;2023-03-31T08:17:15;30.13;;;9.40;;
74415;SDS011;62850;42.428;25.618;2023-03-31T08:19:40;25.80;;;10.50;;
74415;SDS011;62850;42.428;25.618;2023-03-31T08:22:06;26.30;;;11.43;;
74415;SDS011;62850;42.428;25.618;2023-03-31T08:24:31;33.25;;;10.88;;
74415;SDS011;62850;42.428;25.618;2023-03-31T08:26:57;28.25;;;11.00;;
74415;SDS011;62850;42.428;25.618;2023-03-31T08:29:22;30.15;;;10.77;;
74415;SDS011;62850;42.428;25.618;2023-03-31T08:31:48;28.17;;;10.30;;
74415;SDS011;62850;42.428;25.618;2023-03-31T08:34:13;32.53;;;10.35;;
74415;SDS011;62850;42.428;25.618;2023-03-31T08:36:39;24.98;;;9.07;;
74415;SDS011;62850;42.428;25.618;2023-03-31T08:39:05;18.10;;;7.65;;
74415;SDS011;62850;42.428;25.618;2023-03-31T08:41:33;16.73;;;5.65;;
74415;SDS011;62850;42.428;25.618;2023-03-31T08:44:12;15.07;;;6.47;;
74415;SDS011;62850;42.428;25.618;2023-03-31T08:46:42;15.15;;;6.03;;
74415;SDS011;62850;42.428;25.618;2023-03-31T08:49:10;10.10;;;5.00;;
74415;SDS011;62850;42.428;25.618;2023-03-31T08:51:41;10.73;;;5.18;;
74415;SDS011;62850;42.428;25.618;2023-03-31T08:54:29;11.95;;;5.20;;
74415;SDS011;62850;42.428;25.618;2023-03-31T08:56:58;12.98;;;4.30;;
74415;SDS011;62850;42.428;25.618;2023-03-31T08:59:32;10.13;;;4.53;;
74415;SDS011;62850;42.428;25.618;2023-03-31T09:10:51;11.38;;;4.05;;
74415;SDS011;62850;42.428;25.618;2023-03-31T09:18:59;8.77;;;4.32;;
74415;SDS011;62850;42.428;25.618;2023-03-31T09:21:39;12.65;;;3.97;;
74415;SDS011;62850;42.428;25.618;2023-03-31T09:24:14;8.02;;;3.58;;
74415;SDS011;62850;42.428;25.618;2023-03-31T09:26:54;8.13;;;3.50;;
74415;SDS011;62850;42.428;25.618;2023-03-31T09:32:16;8.82;;;4.07;;
74415;SDS011;62850;42.428;25.618;2023-03-31T09:34:49;10.82;;;3.28;;
74415;SDS011;62850;42.428;25.618;2023-03-31T09:37:17;7.15;;;3.28;;
74415;SDS011;62850;42.428;25.618;2023-03-31T09:39:42;7.30;;;3.00;;
74415;SDS011;62850;42.428;25.618;2023-03-31T09:42:11;10.18;;;3.42;;
74415;SDS011;62850;42.428;25.618;2023-03-31T09:44:39;6.22;;;3.30;;
74415;SDS011;62850;42.428;25.618;2023-03-31T09:47:10;13.93;;;4.47;;
74415;SDS011;62850;42.428;25.618;2023-03-31T09:49:40;8.10;;;2.90;;
74415;SDS011;62850;42.428;25.618;2023-03-31T09:55:12;8.85;;;3.10;;
74415;SDS011;62850;42.428;25.618;2023-03-31T09:57:51;12.00;;;3.92;;
74415;SDS011;62850;42.428;25.618;2023-03-31T10:00:18;9.80;;;3.50;;
74415;SDS011;62850;42.428;25.618;2023-03-31T10:02:56;9.18;;;3.35;;
74415;SDS011;62850;42.428;25.618;2023-03-31T10:05:37;8.43;;;3.35;;
74415;SDS011;62850;42.428;25.618;2023-03-31T10:10:48;15.48;;;4.55;;
74415;SDS011;62850;42.428;25.618;2023-03-31T10:13:16;11.93;;;5.05;;
74415;SDS011;62850;42.428;25.618;2023-03-31T10:15:44;16.33;;;6.20;;
74415;SDS011;62850;42.428;25.618;2023-03-31T10:18:17;22.85;;;7.95;;
74415;SDS011;62850;42.428;25.618;2023-03-31T10:20:52;23.92;;;6.18;;
74415;SDS011;62850;42.428;25.618;2023-03-31T10:23:29;13.13;;;5.45;;
74415;SDS011;62850;42.428;25.618;2023-03-31T10:25:56;9.15;;;3.88;;
74415;SDS011;62850;42.428;25.618;2023-03-31T10:28:23;6.88;;;3.95;;
74415;SDS011;62850;42.428;25.618;2023-03-31T10:30:53;8.73;;;3.78;;
74415;SDS011;62850;42.428;25.618;2023-03-31T10:33:31;10.02;;;4.78;;
74415;SDS011;62850;42.428;25.618;2023-03-31T10:38:25;8.50;;;3.70;;
74415;SDS011;62850;42.428;25.618;2023-03-31T10:40:57;9.55;;;3.05;;
74415;SDS011;62850;42.428;25.618;2023-03-31T10:44:29;10.00;;;4.30;;
74415;SDS011;62850;42.428;25.618;2023-03-31T10:46:16;8.65;;;3.85;;
74415;SDS011;62850;42.428;25.618;2023-03-31T10:48:42;10.05;;;4.03;;
74415;SDS011;62850;42.428;25.618;2023-03-31T10:53:42;8.15;;;3.67;;
74415;SDS011;62850;42.428;25.618;2023-03-31T10:56:13;10.25;;;3.85;;
74415;SDS011;62850;42.428;25.618;2023-03-31T10:58:54;10.48;;;4.45;;
74415;SDS011;62850;42.428;25.618;2023-03-31T11:01:50;9.40;;;3.47;;
74415;SDS011;62850;42.428;25.618;2023-03-31T11:10:11;10.48;;;3.83;;
74415;SDS011;62850;42.428;25.618;2023-03-31T11:13:06;12.80;;;3.60;;
74415;SDS011;62850;42.428;25.618;2023-03-31T11:30:01;7.80;;;3.90;;
74415;SDS011;62850;42.428;25.618;2023-03-31T11:40:53;8.38;;;4.82;;
74415;SDS011;62850;42.428;25.618;2023-03-31T11:46:07;11.27;;;5.47;;
74415;SDS011;62850;42.428;25.618;2023-03-31T11:48:44;8.90;;;4.65;;
74415;SDS011;62850;42.428;25.618;2023-03-31T11:51:25;8.25;;;4.50;;
74415;SDS011;62850;42.428;25.618;2023-03-31T11:53:52;8.85;;;3.92;;
74415;SDS011;62850;42.428;25.618;2023-03-31T11:56:20;13.45;;;3.72;;
74415;SDS011;62850;42.428;25.618;2023-03-31T11:58:51;9.70;;;3.20;;
74415;SDS011;62850;42.428;25.618;2023-03-31T12:01:43;6.25;;;3.47;;
74415;SDS011;62850;42.428;25.618;2023-03-31T12:04:11;13.20;;;3.50;;
74415;SDS011;62850;42.428;25.618;2023-03-31T12:09:15;8.73;;;3.58;;
74415;SDS011;62850;42.428;25.618;2023-03-31T12:11:51;8.95;;;3.60;;
74415;SDS011;62850;42.428;25.618;2023-03-31T12:14:36;9.98;;;4.60;;
74415;SDS011;62850;42.428;25.618;2023-03-31T12:17:18;16.05;;;5.10;;
74415;SDS011;62850;42.428;25.618;2023-03-31T12:22:19;10.45;;;5.47;;
74415;SDS011;62850;42.428;25.618;2023-03-31T12:24:46;8.98;;;3.92;;
74415;SDS011;62850;42.428;25.618;2023-03-31T12:27:34;9.00;;;3.83;;
74415;SDS011;62850;42.428;25.618;2023-03-31T12:32:37;11.68;;;4.43;;
74415;SDS011;62850;42.428;25.618;2023-03-31T12:35:09;11.65;;;4.95;;
74415;SDS011;62850;42.428;25.618;2023-03-31T13:00:17;9.25;;;3.97;;
74415;SDS011;62850;42.428;25.618;2023-03-31T13:02:34;9.07;;;4.18;;
74415;SDS011;62850;42.428;25.618;2023-03-31T13:05:14;7.53;;;3.42;;
74415;SDS011;62850;42.428;25.618;2023-03-31T13:08:01;10.15;;;3.67;;
74415;SDS011;62850;42.428;25.618;2023-03-31T13:10:30;7.50;;;3.83;;
74415;SDS011;62850;42.428;25.618;2023-03-31T13:13:00;12.38;;;3.67;;
74415;SDS011;62850;42.428;25.618;2023-03-31T13:15:27;9.35;;;3.92;;
74415;SDS011;62850;42.428;25.618;2023-03-31T13:18:04;10.95;;;3.67;;
74415;SDS011;62850;42.428;25.618;2023-03-31T13:20:32;8.90;;;3.80;;
74415;SDS011;62850;42.428;25.618;2023-03-31T13:25:47;10.63;;;4.25;;
74415;SDS011;62850;42.428;25.618;2023-03-31T13:36:18;9.75;;;3.95;;
74415;SDS011;62850;42.428;25.618;2023-03-31T13:38:56;9.85;;;4.05;;
74415;SDS011;62850;42.428;25.618;2023-03-31T13:44:41;9.57;;;3.80;;
74415;SDS011;62850;42.428;25.618;2023-03-31T13:50:11;9.10;;;3.55;;
74415;SDS011;62850;42.428;25.618;2023-03-31T13:55:51;12.18;;;3.85;;
74415;SDS011;62850;42.428;25.618;2023-03-31T13:58:44;10.57;;;3.80;;
74415;SDS011;62850;42.428;25.618;2023-03-31T14:07:12;13.90;;;3.55;;
74415;SDS011;62850;42.428;25.618;2023-03-31T14:09:42;7.88;;;3.50;;
74415;SDS011;62850;42.428;25.618;2023-03-31T14:12:30;12.77;;;3.90;;
74415;SDS011;62850;42.428;25.618;2023-03-31T14:15:00;9.88;;;4.10;;
74415;SDS011;62850;42.428;25.618;2023-03-31T14:17:30;10.32;;;3.75;;
74415;SDS011;62850;42.428;25.618;2023-03-31T14:25:45;8.18;;;3.88;;
74415;SDS011;62850;42.428;25.618;2023-03-31T14:30:59;8.32;;;4.10;;
74415;SDS011;62850;42.428;25.618;2023-03-31T14:36:40;9.60;;;4.50;;
74415;SDS011;62850;42.428;25.618;2023-03-31T14:39:31;8.73;;;3.67;;
74415;SDS011;62850;42.428;25.618;2023-03-31T14:42:16;7.47;;;3.78;;
74415;SDS011;62850;42.428;25.618;2023-03-31T14:44:44;9.05;;;4.20;;
74415;SDS011;62850;42.428;25.618;2023-03-31T14:47:19;9.35;;;4.68;;
74415;SDS011;62850;42.428;25.618;2023-03-31T14:49:47;10.05;;;4.00;;
74415;SDS011;62850;42.428;25.618;2023-03-31T14:52:22;8.20;;;3.85;;
74415;SDS011;62850;42.428;25.618;2023-03-31T14:54:48;7.78;;;3.70;;
74415;SDS011;62850;42.428;25.618;2023-03-31T14:57:22;8.77;;;4.28;;
74415;SDS011;62850;42.428;25.618;2023-03-31T15:00:05;9.77;;;4.63;;
74415;SDS011;62850;42.428;25.618;2023-03-31T15:02:36;10.43;;;4.63;;
74415;SDS011;62850;42.428;25.618;2023-03-31T15:05:13;7.25;;;4.05;;
74415;SDS011;62850;42.428;25.618;2023-03-31T15:07:48;7.75;;;3.53;;
74415;SDS011;62850;42.428;25.618;2023-03-31T15:10:18;6.63;;;3.65;;
74415;SDS011;62850;42.428;25.618;2023-03-31T15:12:46;10.68;;;4.20;;
74415;SDS011;62850;42.428;25.618;2023-03-31T15:15:15;9.18;;;4.60;;
74415;SDS011;62850;42.428;25.618;2023-03-31T15:17:43;9.52;;;4.30;;
74415;SDS011;62850;42.428;25.618;2023-03-31T15:20:25;8.45;;;4.00;;
74415;SDS011;62850;42.428;25.618;2023-03-31T15:22:53;8.82;;;4.20;;
74415;SDS011;62850;42.428;25.618;2023-03-31T15:25:20;9.75;;;5.07;;
74415;SDS011;62850;42.428;25.618;2023-03-31T15:27:47;11.02;;;4.35;;
74415;SDS011;62850;42.428;25.618;2023-03-31T15:30:18;11.15;;;5.22;;
74415;SDS011;62850;42.428;25.618;2023-03-31T15:32:47;10.32;;;4.57;;
74415;SDS011;62850;42.428;25.618;2023-03-31T15:37:50;14.00;;;4.40;;
74415;SDS011;62850;42.428;25.618;2023-03-31T15:40:23;16.27;;;4.85;;
74415;SDS011;62850;42.428;25.618;2023-03-31T15:42:52;18.27;;;4.82;;
74415;SDS011;62850;42.428;25.618;2023-03-31T15:47:55;11.82;;;3.88;;
74415;SDS011;62850;42.428;25.618;2023-03-31T15:50:21;15.25;;;4.97;;
74415;SDS011;62850;42.428;25.618;2023-03-31T15:52:52;14.10;;;4.85;;
74415;SDS011;62850;42.428;25.618;2023-03-31T15:55:27;11.48;;;5.40;;
74415;SDS011;62850;42.428;25.618;2023-03-31T15:57:56;14.85;;;5.68;;
74415;SDS011;62850;42.428;25.618;2023-03-31T16:02:55;15.00;;;5.55;;
74415;SDS011;62850;42.428;25.618;2023-03-31T16:05:41;14.73;;;5.30;;
74415;SDS011;62850;42.428;25.618;2023-03-31T16:08:23;18.38;;;7.07;;
74415;SDS011;62850;42.428;25.618;2023-03-31T16:10:55;15.13;;;6.80;;
74415;SDS011;62850;42.428;25.618;2023-03-31T16:15:53;14.88;;;5.63;;
74415;SDS011;62850;42.428;25.618;2023-03-31T16:18:24;64.68;;;29.73;;
74415;SDS011;62850;42.428;25.618;2023-03-31T16:20:56;20.30;;;8.30;;
74415;SDS011;62850;42.428;25.618;2023-03-31T16:23:26;17.33;;;7.75;;
74415;SDS011;62850;42.428;25.618;2023-03-31T16:25:53;16.65;;;5.78;;
74415;SDS011;62850;42.428;25.618;2023-03-31T16:28:29;16.27;;;6.03;;
74415;SDS011;62850;42.428;25.618;2023-03-31T16:30:58;28.38;;;8.63;;
74415;SDS011;62850;42.428;25.618;2023-03-31T16:33:26;15.23;;;5.60;;
74415;SDS011;62850;42.428;25.618;2023-03-31T16:35:53;16.63;;;5.18;;
74415;SDS011;62850;42.428;25.618;2023-03-31T16:38:23;15.25;;;5.60;;
74415;SDS011;62850;42.428;25.618;2023-03-31T16:40:51;10.02;;;5.38;;
74415;SDS011;62850;42.428;25.618;2023-03-31T16:43:25;14.40;;;4.70;;
74415;SDS011;62850;42.428;25.618;2023-03-31T16:45:58;10.98;;;4.65;;
74415;SDS011;62850;42.428;25.618;2023-03-31T16:48:26;12.00;;;5.00;;
74415;SDS011;62850;42.428;25.618;2023-03-31T16:50:54;9.20;;;4.50;;
74415;SDS011;62850;42.428;25.618;2023-03-31T16:53:25;12.20;;;4.35;;
74415;SDS011;62850;42.428;25.618;2023-03-31T16:55:52;12.70;;;4.60;;
74415;SDS011;62850;42.428;25.618;2023-03-31T16:58:17;11.35;;;4.60;;
74415;SDS011;62850;42.428;25.618;2023-03-31T17:00:43;10.20;;;4.55;;
74415;SDS011;62850;42.428;25.618;2023-03-31T17:03:10;14.50;;;4.75;;
74415;SDS011;62850;42.428;25.618;2023-03-31T17:05:43;11.48;;;4.70;;
74415;SDS011;62850;42.428;25.618;2023-03-31T17:08:11;8.27;;;4.65;;
74415;SDS011;62850;42.428;25.618;2023-03-31T17:10:38;13.90;;;5.40;;
74415;SDS011;62850;42.428;25.618;2023-03-31T17:13:05;19.58;;;6.60;;
74415;SDS011;62850;42.428;25.618;2023-03-31T17:15:32;18.98;;;7.93;;
74415;SDS011;62850;42.428;25.618;2023-03-31T17:18:00;26.85;;;9.57;;
74415;SDS011;62850;42.428;25.618;2023-03-31T17:20:28;21.98;;;9.43;;
74415;SDS011;62850;42.428;25.618;2023-03-31T17:22:54;14.65;;;7.07;;
74415;SDS011;62850;42.428;25.618;2023-03-31T17:25:20;18.58;;;6.38;;
74415;SDS011;62850;42.428;25.618;2023-03-31T17:27:45;20.25;;;7.40;;
74415;SDS011;62850;42.428;25.618;2023-03-31T17:30:12;20.55;;;10.55;;
74415;SDS011;62850;42.428;25.618;2023-03-31T17:32:37;22.67;;;11.25;;
74415;SDS011;62850;42.428;25.618;2023-03-31T17:35:03;27.77;;;16.48;;
74415;SDS011;62850;42.428;25.618;2023-03-31T17:37:31;20.15;;;9.30;;
74415;SDS011;62850;42.428;25.618;2023-03-31T17:39:57;13.63;;;7.03;;
74415;SDS011;62850;42.428;25.618;2023-03-31T17:42:22;18.10;;;7.53;;
74415;SDS011;62850;42.428;25.618;2023-03-31T17:44:48;19.63;;;8.10;;
74415;SDS011;62850;42.428;25.618;2023-03-31T17:47:15;19.48;;;7.55;;
74415;SDS011;62850;42.428;25.618;2023-03-31T17:49:41;17.25;;;7.05;;
74415;SDS011;62850;42.428;25.618;2023-03-31T17:52:07;16.52;;;7.68;;